createdAt,value
2017-09-18T00:00:20.223Z,93.50
2017-09-18T00:03:22.574Z,93.50
2017-09-18T00:06:24.509Z,93.50
2017-09-18T00:09:26.888Z,93.60
2017-09-18T00:12:29.661Z,93.50
2017-09-18T00:15:32.116Z,93.40
2017-09-18T00:18:34.070Z,93.40
2017-09-18T00:21:36.365Z,93.50
2017-09-18T00:24:38.355Z,93.50
2017-09-18T00:27:40.728Z,93.50
2017-09-18T00:30:42.669Z,93.50
2017-09-18T00:33:45.040Z,93.50
2017-09-18T00:36:46.976Z,93.60
2017-09-18T00:39:49.346Z,93.60
2017-09-18T00:42:51.449Z,93.60
2017-09-18T00:45:54.579Z,93.70
2017-09-18T00:48:56.526Z,93.70
2017-09-18T00:51:58.880Z,93.70
2017-09-18T00:55:00.804Z,93.70
2017-09-18T00:58:03.211Z,93.70
2017-09-18T01:01:05.147Z,93.70
2017-09-18T01:04:07.514Z,93.70
2017-09-18T01:07:09.446Z,93.70
2017-09-18T01:10:11.789Z,93.70
2017-09-18T01:13:13.716Z,93.70
2017-09-18T01:16:16.085Z,93.70
2017-09-18T01:19:18.238Z,93.60
2017-09-18T01:22:20.603Z,93.60
2017-09-18T01:25:23.046Z,93.60
2017-09-18T01:28:25.442Z,93.50
2017-09-18T01:31:27.483Z,93.50
2017-09-18T01:34:29.853Z,93.50
2017-09-18T01:37:31.797Z,93.50
2017-09-18T01:40:34.284Z,93.50
2017-09-18T01:43:36.272Z,93.60
2017-09-18T01:46:38.687Z,93.60
2017-09-18T01:49:40.700Z,93.50
2017-09-18T01:52:43.062Z,93.50
2017-09-18T01:55:44.983Z,93.50
2017-09-18T01:58:47.391Z,93.40
2017-09-18T02:01:49.330Z,93.30
2017-09-18T02:04:51.776Z,93.30
2017-09-18T02:07:53.997Z,93.30
2017-09-18T02:10:56.382Z,93.30
2017-09-18T02:13:58.307Z,93.30
2017-09-18T02:17:00.688Z,93.30
2017-09-18T02:20:02.619Z,93.30
2017-09-18T02:23:04.991Z,93.40
2017-09-18T02:26:06.923Z,93.40
2017-09-18T02:29:09.290Z,93.40
2017-09-18T02:32:11.218Z,93.50
2017-09-18T02:35:13.598Z,93.50
2017-09-18T02:38:15.746Z,93.50
2017-09-18T02:41:18.116Z,93.50
2017-09-18T02:44:20.059Z,93.50
2017-09-18T02:47:22.419Z,93.50
2017-09-18T02:50:24.515Z,93.60
2017-09-18T02:53:26.871Z,93.60
2017-09-18T02:56:28.968Z,93.60
2017-09-18T02:59:31.340Z,93.70
2017-09-18T03:02:33.319Z,93.90
2017-09-18T03:05:35.794Z,94.00
2017-09-18T03:08:37.765Z,94.00
2017-09-18T03:11:40.876Z,94.10
2017-09-18T03:14:42.799Z,94.10
2017-09-18T03:17:45.163Z,94.00
2017-09-18T03:20:47.092Z,93.90
2017-09-18T03:23:49.463Z,93.90
2017-09-18T03:26:51.423Z,93.80
2017-09-18T03:29:53.778Z,93.80
2017-09-18T03:32:55.856Z,93.80
2017-09-18T03:35:58.187Z,93.80
2017-09-18T03:39:00.145Z,93.80
2017-09-18T03:42:02.588Z,93.70
2017-09-18T03:45:04.700Z,93.70
2017-09-18T03:48:07.024Z,93.70
2017-09-18T03:51:08.975Z,93.80
2017-09-18T03:54:11.243Z,93.80
2017-09-18T03:57:13.255Z,93.80
2017-09-18T04:00:15.814Z,93.80
2017-09-18T04:03:17.832Z,93.80
2017-09-18T04:06:20.937Z,93.90
2017-09-18T04:09:22.893Z,93.90
2017-09-18T04:12:25.236Z,93.90
2017-09-18T04:15:27.162Z,93.80
2017-09-18T04:18:30.202Z,93.90
2017-09-18T04:21:32.231Z,93.90
2017-09-18T04:24:34.586Z,93.90
2017-09-18T04:27:36.627Z,93.90
2017-09-18T04:30:38.982Z,93.90
2017-09-18T04:33:40.902Z,93.90
2017-09-18T04:36:44.106Z,93.90
2017-09-18T04:39:46.036Z,93.90
2017-09-18T04:42:48.520Z,93.90
2017-09-18T04:45:50.543Z,93.80
2017-09-18T04:48:53.603Z,93.80
2017-09-18T04:51:56.431Z,93.90
2017-09-18T04:54:58.777Z,93.90
2017-09-18T04:58:00.709Z,94.00
2017-09-18T05:01:03.180Z,94.00
2017-09-18T05:04:05.115Z,94.00
2017-09-18T05:07:08.385Z,94.10
2017-09-18T05:10:10.348Z,94.30
2017-09-18T05:13:12.708Z,94.00
2017-09-18T05:16:14.649Z,94.10
2017-09-18T05:19:17.012Z,94.10
2017-09-18T05:22:18.951Z,94.20
2017-09-18T05:25:21.319Z,94.30
2017-09-18T05:28:23.304Z,94.30
2017-09-18T05:31:25.615Z,94.30
2017-09-18T05:34:27.570Z,94.20
2017-09-18T05:37:30.040Z,94.20
2017-09-18T05:40:31.973Z,94.20
2017-09-18T05:43:34.445Z,94.30
2017-09-18T05:46:36.385Z,94.20
2017-09-18T05:49:38.744Z,94.10
2017-09-18T05:52:41.634Z,94.00
2017-09-18T05:55:43.962Z,94.00
2017-09-18T05:58:46.115Z,93.90
2017-09-18T06:01:48.669Z,93.90
2017-09-18T06:04:50.622Z,93.80
2017-09-18T06:07:52.985Z,93.70
2017-09-18T06:10:54.945Z,93.60
2017-09-18T06:13:57.391Z,93.50
2017-09-18T06:16:59.318Z,93.60
2017-09-18T06:20:02.413Z,93.90
2017-09-18T06:23:04.339Z,93.90
2017-09-18T06:26:07.430Z,94.00
2017-09-18T06:29:09.380Z,94.00
2017-09-18T06:32:11.752Z,93.90
2017-09-18T06:35:13.798Z,94.00
2017-09-18T06:38:16.143Z,93.40
2017-09-18T06:41:18.100Z,93.30
2017-09-18T06:44:20.477Z,93.20
2017-09-18T06:47:22.510Z,93.50
2017-09-18T06:50:24.968Z,93.70
2017-09-18T06:53:26.911Z,91.00
2017-09-18T06:56:29.276Z,88.20
2017-09-18T06:59:31.216Z,86.00
2017-09-18T07:02:33.584Z,85.90
2017-09-18T07:05:35.532Z,85.30
2017-09-18T07:08:37.807Z,86.00
2017-09-18T07:11:39.743Z,87.10
2017-09-18T07:14:42.846Z,85.30
2017-09-18T07:17:46.387Z,84.80
2017-09-18T07:20:48.749Z,84.70
2017-09-18T07:23:50.800Z,85.00
2017-09-18T07:26:53.177Z,84.10
2017-09-18T07:29:55.205Z,83.20
2017-09-18T07:32:57.561Z,82.20
2017-09-18T07:35:59.504Z,80.40
2017-09-18T07:39:01.885Z,78.50
2017-09-18T07:42:03.825Z,78.70
2017-09-18T07:45:06.180Z,77.10
2017-09-18T07:48:08.141Z,74.60
2017-09-18T07:51:10.480Z,68.30
2017-09-18T07:54:12.542Z,65.00
2017-09-18T07:57:14.901Z,62.10
2017-09-18T08:00:16.830Z,59.50
2017-09-18T08:03:19.136Z,57.10
2017-09-18T08:06:21.142Z,54.00
2017-09-18T08:09:23.599Z,51.00
2017-09-18T08:12:25.534Z,49.30
2017-09-18T08:15:27.913Z,48.90
2017-09-18T08:18:29.847Z,45.70
2017-09-18T08:21:32.215Z,43.80
2017-09-18T08:24:34.155Z,42.60
2017-09-18T08:27:36.546Z,40.10
2017-09-18T08:30:38.476Z,39.30
2017-09-18T08:33:40.814Z,38.10
2017-09-18T08:36:42.872Z,35.90
2017-09-18T08:39:45.253Z,36.20
2017-09-18T08:42:47.196Z,35.80
2017-09-18T08:45:49.515Z,36.20
2017-09-18T08:48:51.477Z,37.00
2017-09-18T08:51:53.834Z,35.80
2017-09-18T08:54:55.945Z,36.30
2017-09-18T08:57:58.549Z,36.40
2017-09-18T09:01:05.021Z,37.50
2017-09-18T09:04:07.363Z,38.00
2017-09-18T09:07:09.436Z,38.60
2017-09-18T09:10:11.728Z,40.10
2017-09-18T09:13:14.540Z,40.80
2017-09-18T09:16:16.904Z,40.20
2017-09-18T09:19:19.035Z,40.70
2017-09-18T09:22:21.504Z,42.00
2017-09-18T09:25:23.449Z,43.60
2017-09-18T09:28:25.825Z,45.70
2017-09-18T09:31:27.882Z,47.50
2017-09-18T09:34:30.248Z,49.60
2017-09-18T09:37:32.269Z,51.70
2017-09-18T09:40:34.627Z,55.50
2017-09-18T09:43:36.702Z,57.60
2017-09-18T09:46:39.039Z,58.70
2017-09-18T09:49:40.990Z,59.00
2017-09-18T09:52:43.353Z,59.90
2017-09-18T09:55:45.293Z,60.90
2017-09-18T09:58:47.663Z,59.70
2017-09-18T10:01:49.702Z,60.30
2017-09-18T10:04:52.113Z,62.10
2017-09-18T10:07:54.951Z,63.50
2017-09-18T10:10:57.384Z,63.50
2017-09-18T10:13:59.318Z,65.10
2017-09-18T10:17:01.618Z,65.80
2017-09-18T10:20:03.554Z,67.20
2017-09-18T10:23:05.893Z,68.20
2017-09-18T10:26:07.842Z,69.20
2017-09-18T10:29:10.191Z,69.00
2017-09-18T10:32:12.151Z,70.00
2017-09-18T10:35:14.584Z,71.10
2017-09-18T10:38:16.562Z,70.60
2017-09-18T10:41:19.025Z,69.20
2017-09-18T10:44:21.020Z,69.30
2017-09-18T10:47:24.136Z,66.30
2017-09-18T10:50:26.071Z,65.80
2017-09-18T10:53:28.435Z,64.30
2017-09-18T10:56:30.372Z,60.40
2017-09-18T10:59:32.744Z,55.40
2017-09-18T11:02:34.687Z,52.10
2017-09-18T11:05:37.053Z,47.50
2017-09-18T11:08:39.003Z,43.30
2017-09-18T11:11:41.359Z,40.80
2017-09-18T11:14:43.298Z,38.70
2017-09-18T11:17:45.588Z,37.00
2017-09-18T11:20:47.629Z,37.50
2017-09-18T11:23:49.988Z,37.90
2017-09-18T11:26:51.915Z,39.70
2017-09-18T11:29:54.205Z,43.90
2017-09-18T11:32:56.144Z,46.50
2017-09-18T11:35:58.491Z,49.50
2017-09-18T11:39:00.551Z,51.80
2017-09-18T11:42:03.078Z,53.80
2017-09-18T11:45:05.015Z,55.90
2017-09-18T11:48:07.380Z,56.40
2017-09-18T11:51:09.348Z,56.40
2017-09-18T11:54:11.703Z,52.10
2017-09-18T11:57:13.642Z,48.30
2017-09-18T12:00:16.018Z,47.50
2017-09-18T12:03:17.938Z,45.10
2017-09-18T12:06:20.316Z,41.80
2017-09-18T12:09:22.248Z,40.10
2017-09-18T12:12:24.556Z,40.90
2017-09-18T12:15:27.260Z,43.20
2017-09-18T12:18:29.959Z,43.20
2017-09-18T12:21:31.894Z,44.60
2017-09-18T12:24:34.257Z,46.30
2017-09-18T12:27:36.182Z,48.80
2017-09-18T12:30:38.568Z,51.60
2017-09-18T12:33:41.079Z,54.30
2017-09-18T12:36:44.125Z,60.30
2017-09-18T12:39:46.148Z,60.30
2017-09-18T12:42:48.503Z,60.90
2017-09-18T12:45:50.451Z,60.30
2017-09-18T12:48:52.820Z,58.50
2017-09-18T12:51:54.769Z,58.00
2017-09-18T12:54:57.122Z,57.40
2017-09-18T12:57:59.057Z,57.30
2017-09-18T13:01:01.417Z,57.60
2017-09-18T13:04:03.376Z,57.10
2017-09-18T13:07:05.827Z,54.90
2017-09-18T13:10:07.768Z,53.30
2017-09-18T13:13:10.135Z,52.40
2017-09-18T13:16:12.380Z,51.70
2017-09-18T13:19:14.745Z,52.20
2017-09-18T13:22:16.791Z,52.90
2017-09-18T13:25:19.089Z,52.90
2017-09-18T13:28:21.109Z,48.30
2017-09-18T13:31:23.554Z,42.50
2017-09-18T13:34:26.234Z,39.40
2017-09-18T13:37:28.567Z,37.70
2017-09-18T13:40:30.538Z,34.40
2017-09-18T13:43:33.701Z,34.20
2017-09-18T13:46:35.795Z,36.80
2017-09-18T13:49:38.112Z,39.40
2017-09-18T13:52:40.063Z,43.30
2017-09-18T13:55:42.363Z,45.60
2017-09-18T13:58:45.062Z,48.70
2017-09-18T14:01:47.548Z,48.60
2017-09-18T14:04:49.589Z,49.90
2017-09-18T14:07:51.959Z,50.20
2017-09-18T14:10:53.957Z,50.30
2017-09-18T14:13:56.370Z,50.60
2017-09-18T14:16:59.334Z,50.60
2017-09-18T14:20:01.720Z,51.80
2017-09-18T14:23:03.651Z,53.60
2017-09-18T14:26:05.987Z,54.60
2017-09-18T14:29:07.984Z,55.10
2017-09-18T14:32:11.950Z,56.20
2017-09-18T14:35:13.884Z,56.10
2017-09-18T14:38:17.164Z,57.20
2017-09-18T14:41:19.121Z,57.20
2017-09-18T14:44:21.473Z,58.00
2017-09-18T14:47:23.403Z,58.70
2017-09-18T14:50:25.762Z,58.40
2017-09-18T14:53:27.721Z,59.20
2017-09-18T14:56:30.080Z,59.70
2017-09-18T14:59:32.019Z,59.30
2017-09-18T15:02:34.387Z,59.50
2017-09-18T15:05:36.412Z,58.70
2017-09-18T15:08:38.798Z,57.00
2017-09-18T15:11:40.763Z,57.00
2017-09-18T15:14:43.196Z,56.20
2017-09-18T15:17:45.251Z,56.30
2017-09-18T15:20:47.598Z,57.30
2017-09-18T15:23:49.524Z,58.00
2017-09-18T15:26:52.624Z,60.30
2017-09-18T15:29:54.572Z,60.20
2017-09-18T15:32:56.941Z,60.60
2017-09-18T15:35:58.885Z,60.60
2017-09-18T15:39:01.356Z,61.20
2017-09-18T15:42:03.384Z,61.30
2017-09-18T15:45:05.761Z,62.00
2017-09-18T15:48:07.695Z,62.10
2017-09-18T15:51:10.061Z,61.30
2017-09-18T15:54:11.990Z,62.20
2017-09-18T15:57:14.976Z,60.40
2017-09-18T16:00:16.920Z,58.80
2017-09-18T16:03:19.319Z,58.80
2017-09-18T16:06:21.381Z,60.00
2017-09-18T16:09:23.692Z,61.90
2017-09-18T16:12:25.665Z,63.50
2017-09-18T16:15:28.011Z,63.60
2017-09-18T16:18:30.084Z,63.80
2017-09-18T16:21:33.212Z,65.50
2017-09-18T16:24:35.158Z,65.50
2017-09-18T16:27:37.541Z,67.10
2017-09-18T16:30:39.465Z,68.30
2017-09-18T16:33:42.046Z,69.80
2017-09-18T16:36:43.988Z,70.70
2017-09-18T16:39:46.285Z,71.70
2017-09-18T16:42:48.279Z,72.80
2017-09-18T16:45:50.669Z,74.40
2017-09-18T16:48:53.519Z,74.90
2017-09-18T16:51:55.883Z,75.90
2017-09-18T16:54:58.485Z,76.30
2017-09-18T16:58:00.906Z,76.70
2017-09-18T17:01:02.854Z,77.10
2017-09-18T17:04:05.206Z,77.70
2017-09-18T17:07:07.234Z,78.00
2017-09-18T17:10:10.556Z,79.30
2017-09-18T17:13:12.700Z,79.30
2017-09-18T17:16:15.063Z,79.60
2017-09-18T17:19:17.012Z,81.10
2017-09-18T17:22:19.399Z,80.80
2017-09-18T17:25:21.390Z,81.60
2017-09-18T17:28:23.803Z,82.10
2017-09-18T17:31:25.743Z,82.60
2017-09-18T17:34:29.065Z,83.60
2017-09-18T17:37:31.168Z,83.60
2017-09-18T17:40:33.522Z,84.10
2017-09-18T17:43:35.576Z,84.50
2017-09-18T17:46:37.951Z,84.60
2017-09-18T17:49:40.573Z,84.80
2017-09-18T17:52:43.685Z,85.20
2017-09-18T17:55:45.658Z,85.20
2017-09-18T17:58:47.992Z,85.40
2017-09-18T18:01:49.945Z,86.10
2017-09-18T18:04:52.304Z,86.40
2017-09-18T18:07:54.259Z,86.80
2017-09-18T18:10:56.564Z,87.20
2017-09-18T18:13:59.375Z,87.70
2017-09-18T18:17:01.824Z,87.60
2017-09-18T18:20:03.768Z,88.00
2017-09-18T18:23:07.083Z,88.20
2017-09-18T18:26:09.132Z,88.70
2017-09-18T18:29:11.574Z,89.10
2017-09-18T18:32:13.617Z,89.20
2017-09-18T18:35:15.975Z,89.60
2017-09-18T18:38:17.937Z,89.70
2017-09-18T18:41:20.273Z,89.90
2017-09-18T18:44:22.240Z,90.10
2017-09-18T18:47:25.213Z,90.20
2017-09-18T18:50:27.207Z,90.30
2017-09-18T18:53:30.357Z,90.40
2017-09-18T18:56:32.397Z,90.40
2017-09-18T18:59:34.767Z,90.50
2017-09-18T19:02:36.773Z,90.50
2017-09-18T19:05:39.129Z,90.80
2017-09-18T19:08:41.100Z,91.10
2017-09-18T19:11:43.558Z,91.30
2017-09-18T19:14:45.590Z,91.30
2017-09-18T19:17:47.982Z,91.30
2017-09-18T19:20:49.934Z,91.40
2017-09-18T19:23:52.264Z,91.40
2017-09-18T19:26:54.536Z,91.50
2017-09-18T19:29:57.042Z,91.40
2017-09-18T19:32:59.760Z,91.20
2017-09-18T19:36:02.101Z,91.20
2017-09-18T19:39:04.039Z,91.20
2017-09-18T19:42:06.387Z,91.40
2017-09-18T19:45:08.326Z,92.00
2017-09-18T19:48:10.675Z,92.10
2017-09-18T19:51:12.603Z,92.20
2017-09-18T19:54:16.554Z,92.20
2017-09-18T19:57:18.476Z,92.20
2017-09-18T20:00:20.854Z,92.20
2017-09-18T20:03:23.084Z,92.20
2017-09-18T20:06:25.476Z,92.30
2017-09-18T20:09:27.433Z,92.30
2017-09-18T20:12:29.744Z,92.30
2017-09-18T20:15:32.740Z,92.50
2017-09-18T20:18:35.118Z,92.50
2017-09-18T20:21:37.176Z,92.50
2017-09-18T20:24:39.531Z,92.50
2017-09-18T20:27:42.324Z,92.40
2017-09-18T20:30:44.641Z,92.40
2017-09-18T20:33:46.688Z,92.40
2017-09-18T20:36:49.063Z,92.40
2017-09-18T20:39:51.017Z,92.50
2017-09-18T20:42:53.331Z,92.50
2017-09-18T20:45:55.261Z,92.60
2017-09-18T20:48:58.381Z,92.80
2017-09-18T20:52:00.329Z,92.80
2017-09-18T20:55:02.677Z,92.70
2017-09-18T20:58:04.637Z,92.80
2017-09-18T21:01:07.770Z,92.70
2017-09-18T21:04:10.589Z,92.80
2017-09-18T21:07:12.926Z,92.80
2017-09-18T21:10:14.872Z,92.80
2017-09-18T21:13:17.234Z,92.80
2017-09-18T21:16:19.271Z,92.70
2017-09-18T21:19:21.659Z,92.70
2017-09-18T21:22:23.608Z,92.60
2017-09-18T21:25:25.951Z,92.60
2017-09-18T21:28:27.930Z,92.60
2017-09-18T21:31:30.235Z,92.70
2017-09-18T21:34:32.217Z,92.80
2017-09-18T21:37:34.668Z,92.80
2017-09-18T21:40:36.733Z,92.80
2017-09-18T21:43:39.039Z,92.80
2017-09-18T21:46:41.835Z,92.80
2017-09-18T21:49:44.221Z,92.90
2017-09-18T21:52:46.232Z,92.90
2017-09-18T21:55:48.597Z,92.90
2017-09-18T21:58:50.528Z,92.90
2017-09-18T22:01:53.921Z,92.90
2017-09-18T22:04:55.971Z,93.00
2017-09-18T22:07:58.345Z,93.30
2017-09-18T22:11:00.283Z,93.10
2017-09-18T22:14:02.701Z,93.10
2017-09-18T22:17:05.459Z,93.10
2017-09-18T22:20:09.608Z,93.20
2017-09-18T22:23:11.639Z,93.20
2017-09-18T22:26:13.935Z,93.20
2017-09-18T22:29:15.969Z,93.20
2017-09-18T22:32:18.345Z,93.20
2017-09-18T22:35:20.377Z,93.30
2017-09-18T22:38:22.734Z,93.40
2017-09-18T22:41:24.670Z,93.40
2017-09-18T22:44:27.028Z,93.40
2017-09-18T22:47:28.969Z,93.50
2017-09-18T22:50:31.342Z,93.50
2017-09-18T22:53:33.878Z,93.50
2017-09-18T22:56:37.179Z,93.30
2017-09-18T22:59:39.405Z,93.30
2017-09-18T23:02:43.244Z,93.30
2017-09-18T23:05:45.578Z,93.30
2017-09-18T23:08:48.034Z,93.30
2017-09-18T23:11:49.982Z,93.30
2017-09-18T23:14:52.347Z,93.30
2017-09-18T23:17:54.270Z,93.30
2017-09-18T23:20:57.374Z,93.40
2017-09-18T23:23:59.308Z,93.40
2017-09-18T23:27:01.662Z,93.40
2017-09-18T23:30:03.601Z,93.40
2017-09-18T23:33:06.660Z,93.30
2017-09-18T23:36:08.588Z,93.30
2017-09-18T23:39:10.920Z,93.50
2017-09-18T23:42:12.852Z,93.50
2017-09-18T23:45:15.304Z,93.60
2017-09-18T23:48:17.294Z,93.70
2017-09-18T23:51:19.549Z,93.70
2017-09-18T23:54:21.566Z,93.80
2017-09-18T23:57:23.906Z,93.80
